Terminal Aerodrome Forecast
Issued by NWS

Home | Current Version | Previous Version | Graphics & Text | Print | Product List | Glossary On
Versions: 1 2 3 4 5 6 7 8 9 10 11 12 13 14 15 16 17 18 19 20 21 22 23 24 25 26 27 28 29 30 31 32 33
000
FTUS45 KGGW 281500 AAA
TAFGDV
TAF AMD
KGDV 281506Z 2815/2912 29018KT P6SM SCT120
     FM281630 32021KT P6SM OVC025
     FM290000 31016KT P6SM FEW024 BKN029
     FM290600 31012KT P6SM BKN040
      AMD LTD TO CLD VIS AND WIND=

USA.gov is the U.S. government's official web portal to all federal, state and local government web resources and services.